Real Data Tables
Date Time DC Voltage DC Current AC Voltage AC Current Frequency Power Genarated
2018-08-17 18:45:47 252 V 0.00AMP 244V 0.00 AMP 50Hz 0 W
2018-08-17 18:37:02 107 V 0.00AMP 244V 0.50 AMP 50Hz 0 W
2018-08-17 18:28:16 198 V 0.00AMP 249V 0.60 AMP 50Hz 0 W
2018-08-17 18:19:28 95 V 0.00AMP 245V 0.70 AMP 50Hz 0 W
2018-08-17 18:10:43 263 V 0.00AMP 248V 0.70 AMP 50Hz 0 W
2018-08-17 18:01:57 126 V 0.00AMP 245V 0.60 AMP 50Hz 0 W
2018-08-17 17:53:11 250 V 0.30AMP 244V 0.30 AMP 50Hz 75 W
2018-08-17 17:44:25 197 V 0.30AMP 245V 0.20 AMP 50Hz 59.1 W
2018-08-17 17:35:40 225 V 0.50AMP 251V 0.40 AMP 50Hz 112.5 W
2018-08-17 17:26:54 229 V 0.40AMP 249V 0.30 AMP 50Hz 91.6 W
2018-08-17 17:18:08 225 V 0.60AMP 254V 0.50 AMP 50Hz 135 W
2018-08-17 17:09:22 255 V 0.40AMP 251V 0.40 AMP 50Hz 102 W
2018-08-17 17:00:36 241 V 0.50AMP 252V 0.50 AMP 50Hz 120.5 W
2018-08-17 16:51:51 221 V 0.90AMP 246V 0.80 AMP 50Hz 198.9 W
2018-08-17 16:43:04 212 V 0.70AMP 247V 0.60 AMP 50Hz 148.4 W
2018-08-17 16:34:17 218 V 1.00AMP 246V 0.80 AMP 50Hz 218 W
2018-08-17 16:25:31 271 V 1.50AMP 253V 1.50 AMP 50Hz 406.5 W
2018-08-17 16:16:45 264 V 3.10AMP 250V 3.10 AMP 50Hz 818.4 W
2018-08-17 16:07:59 256 V 4.20AMP 256V 4.00 AMP 50Hz 1075.2 W
2018-08-17 15:59:13 265 V 6.80AMP 258V 6.60 AMP 50Hz 1802 W
2018-08-17 15:50:27 261 V 1.90AMP 249V 1.90 AMP 50Hz 495.9 W
2018-08-17 15:41:42 264 V 7.00AMP 258V 6.80 AMP 50Hz 1848 W
2018-08-17 15:32:56 254 V 8.30AMP 260V 7.70 AMP 50Hz 2108.2 W
2018-08-17 15:24:10 256 V 8.90AMP 257V 8.40 AMP 50Hz 2278.4 W
2018-08-17 15:15:25 268 V 4.70AMP 249V 4.80 AMP 50Hz 1259.6 W
2018-08-17 15:06:39 254 V 6.00AMP 252V 5.80 AMP 50Hz 1524 W
2018-08-17 14:57:53 264 V 5.90AMP 248V 6.00 AMP 50Hz 1557.6 W
2018-08-17 14:49:08 256 V 5.70AMP 250V 5.50 AMP 50Hz 1459.2 W
2018-08-17 14:40:21 254 V 7.90AMP 255V 7.50 AMP 50Hz 2006.6 W
2018-08-17 14:31:35 265 V 11.20AMP 266V 10.60 AMP 50Hz 2968 W
2018-08-17 14:22:50 254 V 6.50AMP 255V 6.20 AMP 50Hz 1651 W
2018-08-17 14:14:04 247 V 6.40AMP 253V 5.90 AMP 50Hz 1580.8 W
2018-08-17 14:05:18 248 V 6.50AMP 257V 6.00 AMP 50Hz 1612 W
2018-08-17 13:56:33 263 V 8.30AMP 261V 8.00 AMP 50Hz 2182.9 W
2018-08-17 13:47:47 257 V 6.40AMP 251V 6.20 AMP 50Hz 1644.8 W
2018-08-17 13:39:01 258 V 6.70AMP 253V 6.50 AMP 50Hz 1728.6 W
2018-08-17 13:30:16 282 V 8.10AMP 258V 8.40 AMP 50Hz 2284.2 W
2018-08-17 13:21:29 261 V 8.80AMP 258V 8.50 AMP 50Hz 2296.8 W
2018-08-17 13:12:43 263 V 7.30AMP 255V 7.20 AMP 50Hz 1919.9 W
2018-08-17 13:03:58 259 V 9.20AMP 257V 8.60 AMP 50Hz 2382.8 W
2018-08-17 12:55:12 257 V 11.30AMP 257V 10.40 AMP 50Hz 2904.1 W
2018-08-17 12:46:25 255 V 11.20AMP 256V 10.30 AMP 50Hz 2856 W
2018-08-17 12:37:40 256 V 13.10AMP 264V 12.00 AMP 50Hz 3353.6 W
2018-08-17 12:28:54 250 V 14.10AMP 263V 12.50 AMP 50Hz 3525 W
2018-08-17 12:20:08 259 V 10.00AMP 256V 9.50 AMP 50Hz 2590 W
2018-08-17 12:11:23 261 V 9.90AMP 259V 9.50 AMP 50Hz 2583.9 W
2018-08-17 12:02:37 264 V 11.30AMP 263V 10.50 AMP 50Hz 2983.2 W
2018-08-17 11:53:51 265 V 8.00AMP 253V 7.80 AMP 50Hz 2120 W
2018-08-17 11:45:06 259 V 7.10AMP 253V 6.90 AMP 50Hz 1838.9 W
2018-08-17 11:36:20 267 V 6.40AMP 252V 6.40 AMP 50Hz 1708.8 W
2018-08-17 11:27:34 261 V 7.00AMP 253V 6.80 AMP 50Hz 1827 W
2018-08-17 11:18:49 267 V 11.10AMP 262V 10.60 AMP 50Hz 2963.7 W
2018-08-17 11:10:03 266 V 10.90AMP 262V 10.50 AMP 50Hz 2899.4 W
2018-08-17 11:01:17 265 V 9.40AMP 259V 9.00 AMP 50Hz 2491 W
2018-08-17 10:52:32 266 V 5.80AMP 251V 5.80 AMP 50Hz 1542.8 W
2018-08-17 10:43:46 275 V 5.00AMP 250V 5.20 AMP 50Hz 1375 W
2018-08-17 10:35:01 274 V 4.90AMP 250V 5.10 AMP 50Hz 1342.6 W
2018-08-17 10:17:30 276 V 5.10AMP 249V 5.40 AMP 50Hz 1407.6 W
2018-08-17 10:08:44 270 V 5.90AMP 250V 6.10 AMP 50Hz 1593 W
2018-08-17 09:59:59 269 V 6.20AMP 253V 6.30 AMP 50Hz 1667.8 W
2018-08-17 09:51:13 272 V 5.70AMP 246V 6.00 AMP 50Hz 1550.4 W
2018-08-17 09:42:27 276 V 5.30AMP 242V 5.70 AMP 50Hz 1462.8 W
2018-08-17 09:33:42 272 V 5.70AMP 244V 6.00 AMP 50Hz 1550.4 W
2018-08-17 09:16:10 275 V 4.40AMP 255V 4.50 AMP 50Hz 1210 W
2018-08-17 09:07:25 277 V 3.60AMP 255V 3.70 AMP 50Hz 997.2 W
2018-08-17 08:58:39 268 V 3.30AMP 248V 3.40 AMP 50Hz 884.4 W
2018-08-17 08:49:53 278 V 3.50AMP 250V 3.70 AMP 50Hz 973 W
2018-08-17 08:41:08 282 V 2.80AMP 250V 3.00 AMP 50Hz 789.6 W
2018-08-17 08:32:22 275 V 2.50AMP 249V 2.60 AMP 50Hz 687.5 W
2018-08-17 08:23:36 327 V 0.00AMP 0V 0.00 AMP 50Hz 0 W
2018-08-17 08:14:51 327 V 0.00AMP 0V 0.00 AMP 50Hz 0 W
2018-08-17 08:06:05 326 V 0.00AMP 0V 0.00 AMP 50Hz 0 W
2018-08-17 07:57:19 326 V 0.00AMP 1V 0.00 AMP 50Hz 0 W
2018-08-17 07:48:34 327 V 0.00AMP 1V 0.00 AMP 50Hz 0 W
2018-08-17 07:39:48 326 V 0.00AMP 1V 0.00 AMP 50Hz 0 W
2018-08-17 07:31:00 284 V 1.10AMP 253V 1.20 AMP 50Hz 312.4 W
2018-08-17 07:22:14 229 V 1.00AMP 252V 0.90 AMP 50Hz 229 W
2018-08-17 07:13:27 281 V 0.80AMP 251V 0.90 AMP 50Hz 224.8 W
2018-08-17 07:04:41 264 V 0.60AMP 257V 0.60 AMP 50Hz 158.4 W
2018-08-17 06:55:56 251 V 0.40AMP 259V 0.40 AMP 50Hz 100.4 W
2018-08-17 06:47:10 154 V 0.10AMP 252V 0.10 AMP 50Hz 15.4 W
2018-08-17 06:38:24 266 V 0.00AMP 250V 0.70 AMP 50Hz 0 W
2018-08-17 06:29:39 246 V 0.00AMP 249V 0.40 AMP 50Hz 0 W
2018-08-17 06:20:51 93 V 0.00AMP 249V 0.50 AMP 50Hz 0 W
2018-08-17 06:12:05 273 V 0.00AMP 251V 0.00 AMP 50Hz 0 W
2018-08-17 06:03:20 185 V 0.00AMP 247V 0.00 AMP 50Hz 0 W
2018-08-17 05:54:34 44 V 0.00AMP 0V 0.00 AMP 0Hz 0 W